createdAt,value
2018-05-18T02:41:10.596Z,20.40
2018-05-18T02:43:39.838Z,22.37
2018-05-18T02:46:08.342Z,22.33
2018-05-18T02:48:37.559Z,23.13
2018-05-18T02:51:05.661Z,21.70
2018-05-18T02:53:34.124Z,23.13
2018-05-18T02:56:02.260Z,22.30
2018-05-18T02:58:31.458Z,20.13
2018-05-18T03:01:00.677Z,20.40
2018-05-18T03:03:29.103Z,20.97
2018-05-18T03:05:57.550Z,21.23
2018-05-18T03:08:25.980Z,20.77
2018-05-18T03:10:55.210Z,21.30
2018-05-18T03:13:23.639Z,22.70
2018-05-18T03:15:52.056Z,22.87
2018-05-18T03:18:21.271Z,21.57
2018-05-18T03:20:49.765Z,22.20
2018-05-18T03:23:18.196Z,21.87
2018-05-18T03:25:47.409Z,20.80
2018-05-18T03:28:15.862Z,22.27
2018-05-18T03:30:44.306Z,20.73
2018-05-18T03:33:12.749Z,20.70
2018-05-18T03:35:41.214Z,21.37
2018-05-18T03:38:10.425Z,21.13
2018-05-18T03:40:38.861Z,20.43
2018-05-18T03:43:07.304Z,20.87
2018-05-18T03:45:35.734Z,21.73
2018-05-18T03:48:04.944Z,21.37
2018-05-18T03:50:34.135Z,20.97
2018-05-18T03:53:03.335Z,20.47
2018-05-18T03:55:32.549Z,21.43
2018-05-18T03:58:00.992Z,21.30
2018-05-18T04:00:29.436Z,20.87
2018-05-18T04:03:08.792Z,22.83
2018-05-18T04:05:48.456Z,21.87
2018-05-18T04:08:28.151Z,23.00
2018-05-18T04:10:56.594Z,20.90
2018-05-18T04:13:25.785Z,21.00
2018-05-18T04:15:54.992Z,20.40
2018-05-18T04:18:23.437Z,20.80
2018-05-18T04:20:52.652Z,20.00
2018-05-18T04:23:22.565Z,21.63
2018-05-18T04:25:52.682Z,20.83
2018-05-18T04:28:22.822Z,20.97
2018-05-18T04:30:52.203Z,18.90
2018-05-18T04:33:21.466Z,18.87
2018-05-18T04:35:50.809Z,19.00
2018-05-18T04:38:20.017Z,18.97
2018-05-18T04:40:48.440Z,19.27
2018-05-18T04:43:16.890Z,18.37
2018-05-18T04:45:46.253Z,19.20
2018-05-18T04:48:15.469Z,18.17
2018-05-18T04:50:43.916Z,18.50
2018-05-18T04:53:12.534Z,18.47
2018-05-18T04:55:40.616Z,18.53
2018-05-18T04:58:09.066Z,18.70
2018-05-18T05:00:38.262Z,18.70
2018-05-18T05:03:07.458Z,18.83
2018-05-18T05:05:36.660Z,17.47
2018-05-18T05:08:05.857Z,18.13
2018-05-18T05:10:35.057Z,17.43
2018-05-18T05:13:04.249Z,17.13
2018-05-18T05:15:33.453Z,17.70
2018-05-18T05:18:02.640Z,18.13
2018-05-18T05:20:32.223Z,18.20
2018-05-18T05:23:01.156Z,18.17
2018-05-18T05:25:29.747Z,17.90
2018-05-18T05:27:58.168Z,17.83
2018-05-18T05:30:26.648Z,18.40
2018-05-18T05:32:55.236Z,17.47
2018-05-18T05:35:23.696Z,18.13
2018-05-18T05:37:52.123Z,17.53
2018-05-18T05:40:21.307Z,18.47
2018-05-18T05:42:50.503Z,18.20
2018-05-18T05:45:19.836Z,17.37
2018-05-18T05:47:48.273Z,18.13
2018-05-18T05:50:16.775Z,18.57
2018-05-18T05:52:46.012Z,18.57
2018-05-18T05:55:15.376Z,19.63
2018-05-18T05:57:44.577Z,18.57
2018-05-18T06:00:12.690Z,20.13
2018-05-18T06:02:41.153Z,19.10
2018-05-18T06:05:09.627Z,18.57
2018-05-18T06:07:38.126Z,19.53
2018-05-18T06:10:06.615Z,18.57
2018-05-18T06:12:35.066Z,19.43
2018-05-18T06:15:03.210Z,18.37
2018-05-18T06:17:32.531Z,19.13
2018-05-18T06:20:00.973Z,18.53
2018-05-18T06:22:29.396Z,19.37
2018-05-18T06:24:58.810Z,18.93
2018-05-18T06:27:27.227Z,19.33
2018-05-18T06:29:55.761Z,17.87
2018-05-18T06:32:24.201Z,17.97
2018-05-18T06:34:53.512Z,18.33
2018-05-18T06:37:22.808Z,18.37
2018-05-18T06:39:51.292Z,18.37
2018-05-18T06:42:19.738Z,18.43
2018-05-18T06:44:48.194Z,18.00
2018-05-18T06:47:16.636Z,18.63
2018-05-18T06:49:45.073Z,18.50
2018-05-18T06:52:13.191Z,17.90
2018-05-18T06:54:42.645Z,18.53
2018-05-18T06:57:11.084Z,20.10
2018-05-18T06:59:39.554Z,18.97
2018-05-18T07:02:07.690Z,18.43
2018-05-18T07:04:37.927Z,19.93
2018-05-18T07:07:06.386Z,18.83
2018-05-18T07:09:35.600Z,18.60
2018-05-18T07:12:04.826Z,19.93
2018-05-18T07:14:33.251Z,19.47
2018-05-18T07:17:02.557Z,19.07
2018-05-18T07:19:32.630Z,19.93
2018-05-18T07:22:01.090Z,19.33
2018-05-18T07:24:29.179Z,18.63
2018-05-18T07:26:57.608Z,20.00
2018-05-18T07:29:26.854Z,18.43
2018-05-18T07:31:55.293Z,18.10
2018-05-18T07:34:24.517Z,18.40
2018-05-18T07:36:52.952Z,18.47
2018-05-18T07:39:21.396Z,18.10
2018-05-18T07:41:49.854Z,16.30
2018-05-18T07:44:17.952Z,16.93
2018-05-18T07:46:46.379Z,17.13
2018-05-18T07:49:15.590Z,15.90
2018-05-18T07:51:44.011Z,17.50
2018-05-18T07:54:13.441Z,16.53
2018-05-18T07:56:42.640Z,16.40
2018-05-18T07:59:11.873Z,17.77
2018-05-18T08:01:40.141Z,16.33
2018-05-18T08:04:08.647Z,16.83
2018-05-18T08:06:37.092Z,15.63
2018-05-18T08:09:04.894Z,17.90
2018-05-18T08:11:34.165Z,16.50
2018-05-18T08:14:02.613Z,15.27
2018-05-18T08:16:31.859Z,15.17
2018-05-18T08:19:01.443Z,13.63
2018-05-18T08:21:30.017Z,13.77
2018-05-18T08:23:58.583Z,13.57
2018-05-18T08:26:27.800Z,12.90
2018-05-18T08:29:07.843Z,13.10
2018-05-18T08:31:37.088Z,13.57
2018-05-18T08:34:05.590Z,13.03
2018-05-18T08:36:34.077Z,12.80
2018-05-18T08:45:02.647Z,11.10
2018-05-18T08:47:31.073Z,11.17
2018-05-18T08:50:00.335Z,11.13
2018-05-18T08:52:28.979Z,11.87
2018-05-18T08:54:57.410Z,12.97
2018-05-18T08:57:25.851Z,12.70
2018-05-18T08:59:54.337Z,12.57
2018-05-18T09:02:22.772Z,11.73
2018-05-18T09:04:51.224Z,11.63
2018-05-18T09:07:19.679Z,12.43
2018-05-18T09:09:48.130Z,12.57
2018-05-18T09:12:17.392Z,11.80
2018-05-18T09:14:45.847Z,11.27
2018-05-18T09:17:14.496Z,11.90
2018-05-18T09:19:43.019Z,13.90
2018-05-18T09:22:11.507Z,12.20
2018-05-18T09:24:39.939Z,11.77
2018-05-18T09:27:08.434Z,11.73
2018-05-18T09:29:36.580Z,11.83
2018-05-18T09:32:05.794Z,11.87
2018-05-18T09:34:34.242Z,11.67
2018-05-18T09:37:03.463Z,11.33
2018-05-18T09:39:31.920Z,12.10
2018-05-18T09:42:01.145Z,10.40
2018-05-18T09:44:29.644Z,11.33
2018-05-18T09:46:58.107Z,11.07
2018-05-18T09:49:26.602Z,11.40
2018-05-18T09:51:55.899Z,11.03
2018-05-18T09:54:24.460Z,12.93
2018-05-18T09:56:53.273Z,10.90
2018-05-18T09:59:21.717Z,10.83
2018-05-18T10:01:50.934Z,10.47
2018-05-18T10:04:20.395Z,11.03
2018-05-18T10:06:49.672Z,11.03
2018-05-18T10:09:18.293Z,11.17
2018-05-18T10:11:47.491Z,11.50
2018-05-18T10:14:16.714Z,12.10
2018-05-18T10:16:45.184Z,10.87
2018-05-18T10:19:13.628Z,10.90
2018-05-18T10:21:42.073Z,10.57
2018-05-18T10:24:11.537Z,11.13
2018-05-18T10:26:39.978Z,11.10
2018-05-18T10:29:08.440Z,10.57
2018-05-18T10:31:36.901Z,10.83
2018-05-18T10:34:05.392Z,10.40
2018-05-18T10:36:33.819Z,10.43
2018-05-18T10:39:02.840Z,9.70
2018-05-18T10:41:31.313Z,9.50
2018-05-18T10:43:59.776Z,10.77
2018-05-18T10:46:29.019Z,9.87
2018-05-18T10:48:57.441Z,9.37
2018-05-18T10:51:26.663Z,9.20
2018-05-18T10:53:55.101Z,10.83
2018-05-18T10:56:23.602Z,9.93
2018-05-18T10:58:52.795Z,9.97
2018-05-18T11:01:22.028Z,9.53
2018-05-18T11:03:50.475Z,9.67
2018-05-18T11:06:19.694Z,9.93
2018-05-18T11:08:48.138Z,10.30
2018-05-18T11:11:16.575Z,9.53
2018-05-18T11:13:46.017Z,9.50
2018-05-18T11:16:14.482Z,8.60
2018-05-18T11:18:42.941Z,9.10
2018-05-18T11:21:11.368Z,9.80
2018-05-18T11:23:40.578Z,9.33
2018-05-18T11:26:09.028Z,9.40
2018-05-18T11:28:37.497Z,9.63
2018-05-18T11:31:05.949Z,9.07
2018-05-18T11:33:35.416Z,9.00
2018-05-18T11:36:03.845Z,9.93
2018-05-18T11:38:32.300Z,9.50
2018-05-18T11:41:00.750Z,8.83
2018-05-18T11:43:29.934Z,9.67
2018-05-18T11:45:59.177Z,10.70
2018-05-18T11:48:27.614Z,10.13
2018-05-18T11:50:56.833Z,10.27
2018-05-18T11:53:25.272Z,9.97
2018-05-18T11:55:53.721Z,9.47
2018-05-18T11:58:22.181Z,10.10
2018-05-18T12:00:50.629Z,9.87
2018-05-18T12:03:19.871Z,10.07
2018-05-18T12:05:48.299Z,10.07
2018-05-18T12:08:17.549Z,9.97
2018-05-18T12:10:46.165Z,9.47
2018-05-18T12:13:14.811Z,10.07
2018-05-18T12:15:43.275Z,10.07
2018-05-18T12:18:11.742Z,9.93
2018-05-18T12:20:40.177Z,9.50
2018-05-18T12:23:08.639Z,10.03
2018-05-18T12:25:37.069Z,9.77
2018-05-18T12:28:05.514Z,9.60
2018-05-18T12:30:33.978Z,10.83
2018-05-18T12:33:02.435Z,9.77
2018-05-18T12:35:30.911Z,9.97
2018-05-18T12:37:59.410Z,10.07
2018-05-18T12:40:27.985Z,11.10
2018-05-18T12:42:56.480Z,10.20
2018-05-18T12:45:24.933Z,10.20
2018-05-18T12:47:53.485Z,9.53
2018-05-18T12:50:21.958Z,9.50
2018-05-18T12:52:51.216Z,8.83
2018-05-18T12:55:20.449Z,9.13
2018-05-18T12:57:49.698Z,9.63
2018-05-18T13:00:18.167Z,10.07
2018-05-18T13:02:46.633Z,9.07
2018-05-18T13:05:15.118Z,9.03
2018-05-18T13:07:43.550Z,8.40
2018-05-18T13:10:12.017Z,9.20
2018-05-18T13:12:40.471Z,9.47
2018-05-18T13:15:08.944Z,8.53
2018-05-18T13:17:37.377Z,8.60
2018-05-18T13:20:06.576Z,9.07
2018-05-18T13:22:35.799Z,9.40
2018-05-18T13:25:03.684Z,9.50
2018-05-18T13:27:32.233Z,8.80
2018-05-18T13:30:01.447Z,9.43
2018-05-18T13:32:29.893Z,9.33
2018-05-18T13:34:59.125Z,10.27
2018-05-18T13:37:27.616Z,8.80
2018-05-18T13:39:56.096Z,8.53
2018-05-18T13:42:24.597Z,8.83
2018-05-18T13:44:54.068Z,9.23
2018-05-18T13:47:22.613Z,9.77
2018-05-18T13:49:51.858Z,8.27
2018-05-18T13:52:20.365Z,8.10
2018-05-18T13:54:48.849Z,9.73
2018-05-18T13:57:17.791Z,9.50
2018-05-18T13:59:47.184Z,8.97
2018-05-18T14:02:16.269Z,8.93
2018-05-18T14:04:46.111Z,9.80
2018-05-18T14:07:14.698Z,9.93
2018-05-18T14:09:43.169Z,9.07
2018-05-18T14:12:11.654Z,9.33
2018-05-18T14:14:40.108Z,9.10
2018-05-18T14:17:08.533Z,8.70
2018-05-18T14:19:37.008Z,8.67
2018-05-18T14:22:05.469Z,9.03
2018-05-18T14:24:34.906Z,8.80
2018-05-18T14:27:03.369Z,9.00
2018-05-18T14:29:31.825Z,8.60
2018-05-18T14:32:00.254Z,8.07
2018-05-18T14:34:28.721Z,8.60
2018-05-18T14:36:57.175Z,9.70
2018-05-18T14:39:26.390Z,9.00
2018-05-18T14:41:54.880Z,10.10
2018-05-18T14:44:23.006Z,8.67
2018-05-18T14:46:51.983Z,10.00
2018-05-18T14:49:20.422Z,9.30
2018-05-18T14:51:48.865Z,9.80
2018-05-18T14:54:18.070Z,9.23
2018-05-18T14:56:47.374Z,9.60
2018-05-18T15:05:01.621Z,10.53
2018-05-18T15:07:50.576Z,9.53
2018-05-18T15:10:28.550Z,9.73
2018-05-18T15:12:57.761Z,10.97
2018-05-18T15:15:26.981Z,10.07
2018-05-18T15:17:55.435Z,9.20
2018-05-18T15:20:25.529Z,9.30
2018-05-18T15:22:53.965Z,9.63
2018-05-18T15:25:22.472Z,10.33
2018-05-18T15:27:50.924Z,9.37
2018-05-18T15:30:19.391Z,9.80
2018-05-18T15:32:47.818Z,9.50
2018-05-18T15:35:16.299Z,9.80
2018-05-18T15:37:44.755Z,9.07
2018-05-18T15:40:13.195Z,9.47
2018-05-18T15:42:42.675Z,9.10
2018-05-18T15:45:12.174Z,10.17
2018-05-18T15:47:41.470Z,8.63
2018-05-18T15:50:11.396Z,9.40
2018-05-18T15:52:41.776Z,9.17
2018-05-18T15:55:10.217Z,10.07
2018-05-18T15:57:38.691Z,8.80
2018-05-18T16:00:12.320Z,9.87
2018-05-18T16:02:40.756Z,9.40
2018-05-18T16:05:10.476Z,10.27
2018-05-18T16:07:40.553Z,9.53
2018-05-18T16:10:09.047Z,9.57
2018-05-18T16:12:37.507Z,8.90
2018-05-18T16:15:05.744Z,9.80
2018-05-18T16:17:34.199Z,9.53
2018-05-18T16:20:03.073Z,9.27
2018-05-18T16:22:31.600Z,9.27
2018-05-18T16:25:00.053Z,9.63
2018-05-18T16:27:29.252Z,9.57
2018-05-18T16:29:58.473Z,8.20
2018-05-18T16:32:26.958Z,9.43
2018-05-18T16:34:55.406Z,8.93
2018-05-18T16:37:24.631Z,9.47
2018-05-18T16:39:53.061Z,8.60
2018-05-18T16:42:21.519Z,8.47
2018-05-18T16:44:50.012Z,8.93
2018-05-18T16:47:18.293Z,8.67
2018-05-18T16:49:46.767Z,9.47
2018-05-18T16:52:15.216Z,9.27
2018-05-18T16:54:43.691Z,8.77
2018-05-18T16:57:12.160Z,8.90
2018-05-18T16:59:40.854Z,9.33
2018-05-18T17:02:09.842Z,8.87
2018-05-18T17:04:38.343Z,10.30
2018-05-18T17:07:06.796Z,8.33
2018-05-18T17:09:35.252Z,9.17
2018-05-18T17:12:04.481Z,9.20
2018-05-18T17:14:32.932Z,8.77
2018-05-18T17:17:02.139Z,10.13
2018-05-18T17:19:30.239Z,9.27
2018-05-18T17:21:58.708Z,9.87
2018-05-18T17:24:27.169Z,8.90
2018-05-18T17:26:55.653Z,8.47
2018-05-18T17:29:24.321Z,9.17
2018-05-18T17:31:53.731Z,9.10
2018-05-18T17:34:22.186Z,9.07
2018-05-18T17:36:51.407Z,9.30
2018-05-18T17:39:19.841Z,9.60
2018-05-18T17:41:48.285Z,8.83
2018-05-18T17:44:16.736Z,8.83
2018-05-18T17:46:45.980Z,9.63
2018-05-18T17:49:14.440Z,9.40
2018-05-18T17:51:42.886Z,9.50
2018-05-18T17:54:12.115Z,9.47
2018-05-18T17:56:41.232Z,9.90
2018-05-18T17:59:10.682Z,11.43
2018-05-18T18:01:39.891Z,9.03
2018-05-18T18:04:08.332Z,9.90
2018-05-18T18:06:36.770Z,9.63
2018-05-18T18:09:05.257Z,9.60
2018-05-18T18:11:33.690Z,9.13
2018-05-18T18:14:03.003Z,9.17
2018-05-18T18:16:32.304Z,9.53
2018-05-18T18:19:00.764Z,9.83
2018-05-18T18:21:29.973Z,8.90
2018-05-18T18:23:59.211Z,9.40
2018-05-18T18:26:28.427Z,8.77
2018-05-18T18:28:56.860Z,9.23
2018-05-18T18:31:25.324Z,9.83
2018-05-18T18:33:54.522Z,9.20
2018-05-18T18:36:23.038Z,8.80
2018-05-18T18:38:51.602Z,8.40
2018-05-18T18:41:20.061Z,9.03
2018-05-18T18:43:49.307Z,8.90
2018-05-18T18:46:18.537Z,9.20
2018-05-18T18:48:47.760Z,9.57
2018-05-18T18:51:16.233Z,9.77
2018-05-18T18:53:45.433Z,9.37
2018-05-18T18:56:13.884Z,9.43
2018-05-18T18:58:42.363Z,8.93
2018-05-18T19:01:11.656Z,9.53
2018-05-18T19:03:40.740Z,9.80
2018-05-18T19:06:09.219Z,9.73
2018-05-18T19:08:37.636Z,9.47
2018-05-18T19:11:06.831Z,9.90
2018-05-18T19:13:36.057Z,9.43
2018-05-18T19:16:04.537Z,9.20
2018-05-18T19:18:32.991Z,10.47
2018-05-18T19:21:02.204Z,9.83
2018-05-18T19:23:30.654Z,11.07
2018-05-18T19:25:59.872Z,10.27
2018-05-18T19:28:28.330Z,10.20
2018-05-18T19:30:57.565Z,10.07
2018-05-18T19:33:26.038Z,10.80
2018-05-18T19:35:54.472Z,10.70
2018-05-18T19:38:22.918Z,10.73
2018-05-18T19:40:51.373Z,10.60
2018-05-18T19:43:19.821Z,11.17
2018-05-18T19:45:49.042Z,10.87
2018-05-18T19:48:17.478Z,10.80
2018-05-18T19:50:45.930Z,11.40
2018-05-18T19:53:14.372Z,11.53
2018-05-18T19:55:42.847Z,11.30
2018-05-18T19:58:12.480Z,12.23
2018-05-18T20:00:40.947Z,12.20
2018-05-18T20:03:10.134Z,13.87
2018-05-18T20:05:40.131Z,13.77
2018-05-18T20:08:09.695Z,13.97
2018-05-18T20:10:38.156Z,12.90
2018-05-18T20:13:06.598Z,12.60
2018-05-18T20:15:35.802Z,13.37
2018-05-18T20:18:05.028Z,12.70
2018-05-18T20:20:33.479Z,13.27
2018-05-18T20:23:02.685Z,13.33
2018-05-18T20:25:31.150Z,13.40
2018-05-18T20:28:00.339Z,13.80
2018-05-18T20:30:29.575Z,13.13
2018-05-18T20:32:58.009Z,13.30
2018-05-18T20:35:26.496Z,13.80
2018-05-18T20:37:56.069Z,13.80
2018-05-18T20:40:24.557Z,13.63
2018-05-18T20:42:53.032Z,13.83
2018-05-18T20:45:21.584Z,13.20
2018-05-18T20:47:50.073Z,13.47
2018-05-18T20:50:18.547Z,14.00
2018-05-18T20:52:47.044Z,13.33
2018-05-18T21:04:11.202Z,13.67
2018-05-18T21:06:40.463Z,13.73
2018-05-18T21:14:54.539Z,13.00
2018-05-18T21:17:23.039Z,12.83
2018-05-18T21:19:51.563Z,12.97
2018-05-18T21:22:20.054Z,12.37
2018-05-18T21:24:48.579Z,12.83
2018-05-18T21:27:17.074Z,12.03
2018-05-18T21:29:45.546Z,12.27
2018-05-18T21:32:14.005Z,13.37
2018-05-18T21:34:43.250Z,11.90
2018-05-18T21:37:11.725Z,12.53
2018-05-18T21:39:40.723Z,12.93
2018-05-18T21:42:09.388Z,11.83
2018-05-18T21:44:37.834Z,12.63
2018-05-18T21:47:07.048Z,12.40
2018-05-18T21:49:35.689Z,12.10
2018-05-18T21:52:04.133Z,12.43
2018-05-18T21:54:32.606Z,11.87
2018-05-18T21:57:01.065Z,12.47
2018-05-18T21:59:41.507Z,12.30
2018-05-18T22:02:10.744Z,12.53
2018-05-18T22:04:41.231Z,13.13
2018-05-18T22:07:10.487Z,12.50
2018-05-18T22:09:42.362Z,13.33
2018-05-18T22:12:11.600Z,12.07
2018-05-18T22:14:41.738Z,12.07
2018-05-18T22:17:11.855Z,12.70
2018-05-18T22:19:41.418Z,12.47
2018-05-18T22:22:12.726Z,12.30
2018-05-18T22:24:41.941Z,12.27
2018-05-18T22:27:12.522Z,12.30
2018-05-18T22:29:43.340Z,12.50
2018-05-18T22:32:33.893Z,11.90
2018-05-18T22:35:02.367Z,13.07
2018-05-18T22:37:31.462Z,12.93
2018-05-18T22:40:00.686Z,12.33
2018-05-18T22:42:31.138Z,13.20
2018-05-18T22:56:37.776Z,13.17
2018-05-18T22:59:06.224Z,12.87
2018-05-18T23:01:35.453Z,12.33
2018-05-18T23:04:03.956Z,12.67
2018-05-18T23:06:32.407Z,12.30
2018-05-18T23:09:00.886Z,12.23
2018-05-18T23:11:38.299Z,11.93
2018-05-18T23:14:08.183Z,12.03
2018-05-18T23:16:39.054Z,12.73
2018-05-18T23:19:09.800Z,12.37
2018-05-18T23:21:41.317Z,13.20
2018-05-18T23:24:11.161Z,12.47
2018-05-18T23:26:40.662Z,12.03
2018-05-18T23:29:13.328Z,13.03
2018-05-18T23:31:42.670Z,12.87
2018-05-18T23:34:12.552Z,13.20
2018-05-18T23:36:42.774Z,14.10
2018-05-18T23:39:12.948Z,13.93
2018-05-18T23:41:47.082Z,14.07
2018-05-18T23:44:16.386Z,13.60
2018-05-18T23:46:47.325Z,13.37
2018-05-18T23:49:19.487Z,13.13
2018-05-18T23:51:48.077Z,14.00
2018-05-18T23:54:19.003Z,13.87
2018-05-18T23:56:47.491Z,13.23
2018-05-18T23:59:19.622Z,13.37
